sensor_id;sensor_type;location;lat;lon;timestamp;P1;durP1;ratioP1;P2;durP2;ratioP2
59474;SDS011;45288;51.136;16.928;2023-03-31T00:02:01;33.65;;;12.60;;
59474;SDS011;45288;51.136;16.928;2023-03-31T00:04:31;39.17;;;19.35;;
59474;SDS011;45288;51.136;16.928;2023-03-31T00:06:57;39.00;;;30.25;;
59474;SDS011;45288;51.136;16.928;2023-03-31T00:09:23;48.50;;;41.10;;
59474;SDS011;45288;51.136;16.928;2023-03-31T00:11:48;132.43;;;122.18;;
59474;SDS011;45288;51.136;16.928;2023-03-31T00:14:15;45.33;;;38.75;;
59474;SDS011;45288;51.136;16.928;2023-03-31T00:16:42;178.30;;;165.63;;
59474;SDS011;45288;51.136;16.928;2023-03-31T00:19:08;105.68;;;97.45;;
59474;SDS011;45288;51.136;16.928;2023-03-31T00:21:37;50.55;;;40.20;;
59474;SDS011;45288;51.136;16.928;2023-03-31T00:24:08;44.83;;;33.22;;
59474;SDS011;45288;51.136;16.928;2023-03-31T00:26:34;52.07;;;35.43;;
59474;SDS011;45288;51.136;16.928;2023-03-31T00:29:01;36.55;;;20.08;;
59474;SDS011;45288;51.136;16.928;2023-03-31T00:31:27;39.75;;;16.60;;
59474;SDS011;45288;51.136;16.928;2023-03-31T00:33:53;41.07;;;12.47;;
59474;SDS011;45288;51.136;16.928;2023-03-31T00:36:19;34.92;;;12.60;;
59474;SDS011;45288;51.136;16.928;2023-03-31T00:38:58;42.65;;;17.80;;
59474;SDS011;45288;51.136;16.928;2023-03-31T00:41:26;42.50;;;25.45;;
59474;SDS011;45288;51.136;16.928;2023-03-31T00:44:12;35.90;;;17.33;;
59474;SDS011;45288;51.136;16.928;2023-03-31T00:49:10;30.27;;;8.63;;
59474;SDS011;45288;51.136;16.928;2023-03-31T00:51:38;32.42;;;9.43;;
59474;SDS011;45288;51.136;16.928;2023-03-31T00:54:04;28.90;;;9.73;;
59474;SDS011;45288;51.136;16.928;2023-03-31T00:56:37;33.00;;;11.43;;
59474;SDS011;45288;51.136;16.928;2023-03-31T00:59:05;38.77;;;16.53;;
59474;SDS011;45288;51.136;16.928;2023-03-31T01:01:32;34.28;;;13.38;;
59474;SDS011;45288;51.136;16.928;2023-03-31T01:04:01;35.93;;;11.07;;
59474;SDS011;45288;51.136;16.928;2023-03-31T01:06:30;31.15;;;9.63;;
59474;SDS011;45288;51.136;16.928;2023-03-31T01:08:57;31.58;;;10.93;;
59474;SDS011;45288;51.136;16.928;2023-03-31T01:11:23;34.83;;;19.77;;
59474;SDS011;45288;51.136;16.928;2023-03-31T01:13:50;47.35;;;26.10;;
59474;SDS011;45288;51.136;16.928;2023-03-31T01:16:16;44.92;;;29.45;;
59474;SDS011;45288;51.136;16.928;2023-03-31T01:18:42;41.30;;;25.40;;
59474;SDS011;45288;51.136;16.928;2023-03-31T01:29:20;31.95;;;9.32;;
59474;SDS011;45288;51.136;16.928;2023-03-31T01:47:00;35.72;;;12.60;;
59474;SDS011;45288;51.136;16.928;2023-03-31T01:49:39;29.43;;;8.60;;
59474;SDS011;45288;51.136;16.928;2023-03-31T01:59:37;30.40;;;9.48;;
59474;SDS011;45288;51.136;16.928;2023-03-31T02:02:07;27.60;;;9.07;;
59474;SDS011;45288;51.136;16.928;2023-03-31T02:04:46;38.20;;;11.40;;
59474;SDS011;45288;51.136;16.928;2023-03-31T02:07:14;33.65;;;11.82;;
59474;SDS011;45288;51.136;16.928;2023-03-31T02:09:43;33.33;;;9.98;;
59474;SDS011;45288;51.136;16.928;2023-03-31T02:12:11;28.60;;;9.02;;
59474;SDS011;45288;51.136;16.928;2023-03-31T02:14:38;34.85;;;12.75;;
59474;SDS011;45288;51.136;16.928;2023-03-31T02:17:06;35.80;;;30.30;;
59474;SDS011;45288;51.136;16.928;2023-03-31T02:19:36;39.25;;;20.00;;
59474;SDS011;45288;51.136;16.928;2023-03-31T02:22:04;43.40;;;22.33;;
59474;SDS011;45288;51.136;16.928;2023-03-31T02:24:30;53.80;;;36.60;;
59474;SDS011;45288;51.136;16.928;2023-03-31T02:27:31;37.97;;;17.92;;
59474;SDS011;45288;51.136;16.928;2023-03-31T02:29:49;53.63;;;36.75;;
59474;SDS011;45288;51.136;16.928;2023-03-31T02:32:29;43.70;;;21.45;;
59474;SDS011;45288;51.136;16.928;2023-03-31T02:34:57;161.82;;;149.52;;
59474;SDS011;45288;51.136;16.928;2023-03-31T02:37:23;399.30;;;371.52;;
59474;SDS011;45288;51.136;16.928;2023-03-31T02:39:49;231.10;;;214.98;;
59474;SDS011;45288;51.136;16.928;2023-03-31T02:42:17;233.07;;;217.60;;
59474;SDS011;45288;51.136;16.928;2023-03-31T02:44:43;179.50;;;167.35;;
59474;SDS011;45288;51.136;16.928;2023-03-31T02:47:10;85.13;;;78.43;;
59474;SDS011;45288;51.136;16.928;2023-03-31T02:49:37;108.13;;;99.72;;
59474;SDS011;45288;51.136;16.928;2023-03-31T03:07:24;171.47;;;159.97;;
59474;SDS011;45288;51.136;16.928;2023-03-31T03:15:09;462.40;;;430.52;;
59474;SDS011;45288;51.136;16.928;2023-03-31T03:17:45;574.67;;;535.65;;
59474;SDS011;45288;51.136;16.928;2023-03-31T03:20:12;251.60;;;235.13;;
59474;SDS011;45288;51.136;16.928;2023-03-31T03:22:38;556.25;;;518.42;;
59474;SDS011;45288;51.136;16.928;2023-03-31T03:25:08;374.05;;;348.95;;
59474;SDS011;45288;51.136;16.928;2023-03-31T03:27:35;291.02;;;270.77;;
59474;SDS011;45288;51.136;16.928;2023-03-31T03:30:01;667.45;;;620.28;;
59474;SDS011;45288;51.136;16.928;2023-03-31T03:32:28;801.35;;;746.83;;
59474;SDS011;45288;51.136;16.928;2023-03-31T03:34:53;888.63;;;830.90;;
59474;SDS011;45288;51.136;16.928;2023-03-31T03:37:19;667.72;;;623.50;;
59474;SDS011;45288;51.136;16.928;2023-03-31T03:39:45;847.15;;;790.00;;
59474;SDS011;45288;51.136;16.928;2023-03-31T03:42:11;847.83;;;788.23;;
59474;SDS011;45288;51.136;16.928;2023-03-31T03:44:36;719.38;;;671.00;;
59474;SDS011;45288;51.136;16.928;2023-03-31T03:47:02;820.85;;;765.00;;
59474;SDS011;45288;51.136;16.928;2023-03-31T03:49:28;763.17;;;712.27;;
59474;SDS011;45288;51.136;16.928;2023-03-31T03:51:53;850.15;;;792.72;;
59474;SDS011;45288;51.136;16.928;2023-03-31T03:54:19;731.33;;;683.22;;
59474;SDS011;45288;51.136;16.928;2023-03-31T03:56:45;812.20;;;756.37;;
59474;SDS011;45288;51.136;16.928;2023-03-31T03:59:11;835.78;;;778.58;;
59474;SDS011;45288;51.136;16.928;2023-03-31T04:01:36;816.60;;;756.80;;
59474;SDS011;45288;51.136;16.928;2023-03-31T04:04:02;672.83;;;627.93;;
59474;SDS011;45288;51.136;16.928;2023-03-31T04:06:28;700.03;;;652.22;;
59474;SDS011;45288;51.136;16.928;2023-03-31T04:08:53;444.30;;;414.73;;
59474;SDS011;45288;51.136;16.928;2023-03-31T04:11:19;495.58;;;462.88;;
59474;SDS011;45288;51.136;16.928;2023-03-31T04:13:45;195.30;;;181.80;;
59474;SDS011;45288;51.136;16.928;2023-03-31T04:16:10;114.60;;;106.13;;
59474;SDS011;45288;51.136;16.928;2023-03-31T04:18:36;310.97;;;289.73;;
59474;SDS011;45288;51.136;16.928;2023-03-31T04:21:13;274.10;;;256.17;;
59474;SDS011;45288;51.136;16.928;2023-03-31T04:23:47;610.55;;;568.83;;
59474;SDS011;45288;51.136;16.928;2023-03-31T04:26:14;449.20;;;418.80;;
59474;SDS011;45288;51.136;16.928;2023-03-31T04:28:40;186.25;;;172.65;;
59474;SDS011;45288;51.136;16.928;2023-03-31T04:31:11;64.43;;;57.67;;
59474;SDS011;45288;51.136;16.928;2023-03-31T04:33:41;100.40;;;92.27;;
59474;SDS011;45288;51.136;16.928;2023-03-31T04:36:10;124.68;;;114.95;;
59474;SDS011;45288;51.136;16.928;2023-03-31T04:38:42;148.45;;;137.18;;
59474;SDS011;45288;51.136;16.928;2023-03-31T04:41:13;164.23;;;152.48;;
59474;SDS011;45288;51.136;16.928;2023-03-31T04:43:39;153.80;;;142.27;;
59474;SDS011;45288;51.136;16.928;2023-03-31T04:46:05;156.35;;;144.52;;
59474;SDS011;45288;51.136;16.928;2023-03-31T04:48:31;177.90;;;165.40;;
59474;SDS011;45288;51.136;16.928;2023-03-31T04:50:57;181.50;;;168.30;;
59474;SDS011;45288;51.136;16.928;2023-03-31T04:53:22;152.60;;;141.30;;
59474;SDS011;45288;51.136;16.928;2023-03-31T04:55:48;221.13;;;205.45;;
59474;SDS011;45288;51.136;16.928;2023-03-31T04:58:14;147.25;;;136.00;;
59474;SDS011;45288;51.136;16.928;2023-03-31T05:00:40;206.23;;;190.98;;
59474;SDS011;45288;51.136;16.928;2023-03-31T05:03:05;217.27;;;201.93;;
59474;SDS011;45288;51.136;16.928;2023-03-31T05:05:31;151.63;;;140.35;;
59474;SDS011;45288;51.136;16.928;2023-03-31T05:07:57;136.23;;;125.30;;
59474;SDS011;45288;51.136;16.928;2023-03-31T05:10:23;172.53;;;159.80;;
59474;SDS011;45288;51.136;16.928;2023-03-31T05:12:48;140.77;;;130.00;;
59474;SDS011;45288;51.136;16.928;2023-03-31T05:15:14;248.70;;;232.17;;
59474;SDS011;45288;51.136;16.928;2023-03-31T05:17:40;167.90;;;156.25;;
59474;SDS011;45288;51.136;16.928;2023-03-31T05:20:06;205.20;;;191.88;;
59474;SDS011;45288;51.136;16.928;2023-03-31T05:22:36;188.57;;;175.52;;
59474;SDS011;45288;51.136;16.928;2023-03-31T05:25:04;135.02;;;125.47;;
59474;SDS011;45288;51.136;16.928;2023-03-31T05:27:31;162.07;;;150.98;;
59474;SDS011;45288;51.136;16.928;2023-03-31T05:29:56;104.97;;;96.70;;
59474;SDS011;45288;51.136;16.928;2023-03-31T05:32:23;129.98;;;120.63;;
59474;SDS011;45288;51.136;16.928;2023-03-31T05:34:48;133.47;;;122.60;;
59474;SDS011;45288;51.136;16.928;2023-03-31T05:37:17;82.80;;;75.47;;
59474;SDS011;45288;51.136;16.928;2023-03-31T05:39:43;70.30;;;63.60;;
59474;SDS011;45288;51.136;16.928;2023-03-31T05:42:08;108.20;;;98.30;;
59474;SDS011;45288;51.136;16.928;2023-03-31T05:44:34;133.20;;;122.00;;
59474;SDS011;45288;51.136;16.928;2023-03-31T05:46:59;173.03;;;158.80;;
59474;SDS011;45288;51.136;16.928;2023-03-31T05:49:25;178.00;;;166.32;;
59474;SDS011;45288;51.136;16.928;2023-03-31T05:51:51;164.77;;;153.33;;
59474;SDS011;45288;51.136;16.928;2023-03-31T05:54:17;190.50;;;177.70;;
59474;SDS011;45288;51.136;16.928;2023-03-31T05:56:43;292.47;;;273.47;;
59474;SDS011;45288;51.136;16.928;2023-03-31T05:59:09;387.92;;;363.05;;
59474;SDS011;45288;51.136;16.928;2023-03-31T06:01:34;365.08;;;341.05;;
59474;SDS011;45288;51.136;16.928;2023-03-31T06:04:00;333.60;;;311.27;;
59474;SDS011;45288;51.136;16.928;2023-03-31T06:06:26;279.35;;;261.67;;
59474;SDS011;45288;51.136;16.928;2023-03-31T06:08:52;247.65;;;231.57;;
59474;SDS011;45288;51.136;16.928;2023-03-31T06:11:19;309.00;;;289.10;;
59474;SDS011;45288;51.136;16.928;2023-03-31T06:13:45;150.15;;;139.80;;
59474;SDS011;45288;51.136;16.928;2023-03-31T06:16:11;210.93;;;197.17;;
59474;SDS011;45288;51.136;16.928;2023-03-31T06:18:37;324.33;;;302.48;;
59474;SDS011;45288;51.136;16.928;2023-03-31T06:21:04;401.40;;;373.30;;
59474;SDS011;45288;51.136;16.928;2023-03-31T06:23:30;422.83;;;394.20;;
59474;SDS011;45288;51.136;16.928;2023-03-31T06:25:59;265.70;;;248.02;;
59474;SDS011;45288;51.136;16.928;2023-03-31T06:28:25;218.65;;;203.93;;
59474;SDS011;45288;51.136;16.928;2023-03-31T06:30:50;66.20;;;60.20;;
59474;SDS011;45288;51.136;16.928;2023-03-31T06:33:23;40.65;;;25.33;;
59474;SDS011;45288;51.136;16.928;2023-03-31T06:35:49;68.83;;;62.43;;
59474;SDS011;45288;51.136;16.928;2023-03-31T06:38:15;51.60;;;46.60;;
59474;SDS011;45288;51.136;16.928;2023-03-31T06:40:40;79.60;;;72.27;;
59474;SDS011;45288;51.136;16.928;2023-03-31T06:43:06;106.37;;;97.70;;
59474;SDS011;45288;51.136;16.928;2023-03-31T06:45:32;160.23;;;149.43;;
59474;SDS011;45288;51.136;16.928;2023-03-31T06:47:57;185.73;;;173.07;;
59474;SDS011;45288;51.136;16.928;2023-03-31T06:50:23;192.35;;;179.63;;
59474;SDS011;45288;51.136;16.928;2023-03-31T06:52:48;196.13;;;183.00;;
59474;SDS011;45288;51.136;16.928;2023-03-31T06:55:17;162.90;;;151.87;;
59474;SDS011;45288;51.136;16.928;2023-03-31T06:57:42;102.97;;;95.03;;
59474;SDS011;45288;51.136;16.928;2023-03-31T07:00:08;128.87;;;119.90;;
59474;SDS011;45288;51.136;16.928;2023-03-31T07:02:34;86.30;;;79.82;;
59474;SDS011;45288;51.136;16.928;2023-03-31T07:05:01;102.30;;;94.32;;
59474;SDS011;45288;51.136;16.928;2023-03-31T07:07:26;117.53;;;109.20;;
59474;SDS011;45288;51.136;16.928;2023-03-31T07:09:55;153.57;;;142.97;;
59474;SDS011;45288;51.136;16.928;2023-03-31T07:12:21;266.75;;;249.15;;
59474;SDS011;45288;51.136;16.928;2023-03-31T07:14:46;149.07;;;138.00;;
59474;SDS011;45288;51.136;16.928;2023-03-31T07:17:12;206.98;;;192.95;;
59474;SDS011;45288;51.136;16.928;2023-03-31T07:19:37;363.23;;;338.23;;
59474;SDS011;45288;51.136;16.928;2023-03-31T07:22:06;296.77;;;276.75;;
59474;SDS011;45288;51.136;16.928;2023-03-31T07:24:32;327.37;;;305.23;;
59474;SDS011;45288;51.136;16.928;2023-03-31T07:26:57;273.73;;;254.70;;
59474;SDS011;45288;51.136;16.928;2023-03-31T07:29:23;242.97;;;226.60;;
59474;SDS011;45288;51.136;16.928;2023-03-31T07:31:49;150.80;;;139.88;;
59474;SDS011;45288;51.136;16.928;2023-03-31T07:34:15;67.07;;;61.38;;
59474;SDS011;45288;51.136;16.928;2023-03-31T07:36:40;84.17;;;77.10;;
59474;SDS011;45288;51.136;16.928;2023-03-31T07:39:06;171.23;;;159.03;;
59474;SDS011;45288;51.136;16.928;2023-03-31T07:41:32;130.95;;;121.55;;
59474;SDS011;45288;51.136;16.928;2023-03-31T07:43:57;204.40;;;190.18;;
59474;SDS011;45288;51.136;16.928;2023-03-31T07:46:24;319.33;;;297.10;;
59474;SDS011;45288;51.136;16.928;2023-03-31T07:48:50;189.10;;;175.45;;
59474;SDS011;45288;51.136;16.928;2023-03-31T07:51:17;87.35;;;80.75;;
59474;SDS011;45288;51.136;16.928;2023-03-31T07:53:43;142.30;;;132.20;;
59474;SDS011;45288;51.136;16.928;2023-03-31T07:56:09;137.47;;;127.57;;
59474;SDS011;45288;51.136;16.928;2023-03-31T07:58:35;143.07;;;133.18;;
59474;SDS011;45288;51.136;16.928;2023-03-31T08:01:01;173.88;;;161.60;;
59474;SDS011;45288;51.136;16.928;2023-03-31T08:03:27;225.80;;;210.10;;
59474;SDS011;45288;51.136;16.928;2023-03-31T08:05:53;90.30;;;83.05;;
59474;SDS011;45288;51.136;16.928;2023-03-31T08:08:18;113.68;;;105.43;;
59474;SDS011;45288;51.136;16.928;2023-03-31T08:10:44;184.60;;;171.32;;
59474;SDS011;45288;51.136;16.928;2023-03-31T08:13:10;302.87;;;280.97;;
59474;SDS011;45288;51.136;16.928;2023-03-31T08:15:35;64.75;;;59.30;;
59474;SDS011;45288;51.136;16.928;2023-03-31T08:18:04;82.40;;;75.37;;
59474;SDS011;45288;51.136;16.928;2023-03-31T08:20:30;361.88;;;335.85;;
59474;SDS011;45288;51.136;16.928;2023-03-31T08:22:55;493.85;;;457.17;;
59474;SDS011;45288;51.136;16.928;2023-03-31T08:25:21;224.55;;;209.45;;
59474;SDS011;45288;51.136;16.928;2023-03-31T08:27:48;102.93;;;95.07;;
59474;SDS011;45288;51.136;16.928;2023-03-31T08:30:16;48.15;;;43.50;;
59474;SDS011;45288;51.136;16.928;2023-03-31T08:32:42;70.87;;;64.83;;
59474;SDS011;45288;51.136;16.928;2023-03-31T08:35:08;299.08;;;277.55;;
59474;SDS011;45288;51.136;16.928;2023-03-31T08:37:34;208.50;;;194.07;;
59474;SDS011;45288;51.136;16.928;2023-03-31T08:40:00;55.13;;;50.00;;
59474;SDS011;45288;51.136;16.928;2023-03-31T08:42:34;559.47;;;516.67;;
59474;SDS011;45288;51.136;16.928;2023-03-31T08:45:02;267.63;;;248.17;;
59474;SDS011;45288;51.136;16.928;2023-03-31T08:47:29;107.68;;;100.32;;
59474;SDS011;45288;51.136;16.928;2023-03-31T08:50:02;104.07;;;96.20;;
59474;SDS011;45288;51.136;16.928;2023-03-31T08:52:37;164.25;;;152.25;;
59474;SDS011;45288;51.136;16.928;2023-03-31T08:55:06;56.05;;;50.72;;
59474;SDS011;45288;51.136;16.928;2023-03-31T09:00:09;68.45;;;62.42;;
59474;SDS011;45288;51.136;16.928;2023-03-31T09:15:53;93.30;;;85.15;;
59474;SDS011;45288;51.136;16.928;2023-03-31T09:18:26;163.95;;;152.27;;
59474;SDS011;45288;51.136;16.928;2023-03-31T09:20:52;162.27;;;150.60;;
59474;SDS011;45288;51.136;16.928;2023-03-31T09:23:37;120.03;;;111.25;;
59474;SDS011;45288;51.136;16.928;2023-03-31T09:26:06;180.15;;;164.90;;
59474;SDS011;45288;51.136;16.928;2023-03-31T09:28:38;206.55;;;192.00;;
59474;SDS011;45288;51.136;16.928;2023-03-31T09:31:07;257.92;;;239.77;;
59474;SDS011;45288;51.136;16.928;2023-03-31T09:33:35;229.48;;;213.18;;
59474;SDS011;45288;51.136;16.928;2023-03-31T09:36:07;259.25;;;240.48;;
59474;SDS011;45288;51.136;16.928;2023-03-31T09:38:37;365.83;;;339.85;;
59474;SDS011;45288;51.136;16.928;2023-03-31T09:41:02;270.17;;;250.95;;
59474;SDS011;45288;51.136;16.928;2023-03-31T09:43:30;295.65;;;275.05;;
59474;SDS011;45288;51.136;16.928;2023-03-31T09:45:57;208.07;;;192.68;;
59474;SDS011;45288;51.136;16.928;2023-03-31T09:48:27;171.40;;;159.37;;
59474;SDS011;45288;51.136;16.928;2023-03-31T09:50:56;159.52;;;147.88;;
59474;SDS011;45288;51.136;16.928;2023-03-31T09:56:01;229.05;;;211.95;;
59474;SDS011;45288;51.136;16.928;2023-03-31T09:58:27;191.27;;;177.85;;
59474;SDS011;45288;51.136;16.928;2023-03-31T10:01:00;152.53;;;140.80;;
59474;SDS011;45288;51.136;16.928;2023-03-31T10:03:26;118.45;;;109.90;;
59474;SDS011;45288;51.136;16.928;2023-03-31T10:05:54;121.85;;;112.40;;
59474;SDS011;45288;51.136;16.928;2023-03-31T10:13:23;95.47;;;88.57;;
59474;SDS011;45288;51.136;16.928;2023-03-31T10:15:53;145.13;;;133.05;;
59474;SDS011;45288;51.136;16.928;2023-03-31T10:18:19;151.77;;;139.85;;
59474;SDS011;45288;51.136;16.928;2023-03-31T10:20:51;56.37;;;50.97;;
59474;SDS011;45288;51.136;16.928;2023-03-31T10:23:28;110.07;;;101.33;;
59474;SDS011;45288;51.136;16.928;2023-03-31T10:25:53;87.65;;;80.78;;
59474;SDS011;45288;51.136;16.928;2023-03-31T10:28:19;111.67;;;103.03;;
59474;SDS011;45288;51.136;16.928;2023-03-31T10:30:52;135.43;;;124.60;;
59474;SDS011;45288;51.136;16.928;2023-03-31T10:33:24;110.63;;;102.47;;
59474;SDS011;45288;51.136;16.928;2023-03-31T10:36:01;87.57;;;80.60;;
59474;SDS011;45288;51.136;16.928;2023-03-31T10:38:29;117.60;;;109.07;;
59474;SDS011;45288;51.136;16.928;2023-03-31T10:40:56;92.22;;;84.47;;
59474;SDS011;45288;51.136;16.928;2023-03-31T10:43:26;93.07;;;85.50;;
59474;SDS011;45288;51.136;16.928;2023-03-31T10:45:54;89.07;;;82.07;;
59474;SDS011;45288;51.136;16.928;2023-03-31T10:48:31;108.13;;;100.40;;
59474;SDS011;45288;51.136;16.928;2023-03-31T10:50:58;74.88;;;67.60;;
59474;SDS011;45288;51.136;16.928;2023-03-31T10:53:24;41.87;;;37.87;;
59474;SDS011;45288;51.136;16.928;2023-03-31T10:55:52;41.20;;;36.80;;
59474;SDS011;45288;51.136;16.928;2023-03-31T11:06:15;320.05;;;296.10;;
59474;SDS011;45288;51.136;16.928;2023-03-31T11:16:22;29.42;;;11.20;;
59474;SDS011;45288;51.136;16.928;2023-03-31T11:26:16;25.05;;;8.32;;
59474;SDS011;45288;51.136;16.928;2023-03-31T11:28:55;28.10;;;10.65;;
59474;SDS011;45288;51.136;16.928;2023-03-31T11:31:41;25.35;;;10.52;;
59474;SDS011;45288;51.136;16.928;2023-03-31T11:34:15;72.47;;;66.53;;
59474;SDS011;45288;51.136;16.928;2023-03-31T11:41:53;439.58;;;406.02;;
59474;SDS011;45288;51.136;16.928;2023-03-31T11:44:19;201.07;;;186.98;;
59474;SDS011;45288;51.136;16.928;2023-03-31T11:54:07;398.87;;;368.40;;
59474;SDS011;45288;51.136;16.928;2023-03-31T11:56:37;25.23;;;7.55;;
59474;SDS011;45288;51.136;16.928;2023-03-31T11:59:03;29.33;;;8.60;;
59474;SDS011;45288;51.136;16.928;2023-03-31T12:06:39;21.20;;;7.45;;
59474;SDS011;45288;51.136;16.928;2023-03-31T12:09:26;25.40;;;8.27;;
59474;SDS011;45288;51.136;16.928;2023-03-31T12:17:00;27.77;;;8.68;;
59474;SDS011;45288;51.136;16.928;2023-03-31T12:19:33;29.88;;;16.60;;
59474;SDS011;45288;51.136;16.928;2023-03-31T12:22:17;126.40;;;116.78;;
59474;SDS011;45288;51.136;16.928;2023-03-31T12:24:44;76.25;;;69.78;;
59474;SDS011;45288;51.136;16.928;2023-03-31T12:27:44;131.02;;;121.80;;
59474;SDS011;45288;51.136;16.928;2023-03-31T12:30:14;240.67;;;222.17;;
59474;SDS011;45288;51.136;16.928;2023-03-31T12:32:46;134.70;;;124.63;;
59474;SDS011;45288;51.136;16.928;2023-03-31T12:37:57;25.90;;;10.43;;
59474;SDS011;45288;51.136;16.928;2023-03-31T12:46:06;24.88;;;7.07;;
59474;SDS011;45288;51.136;16.928;2023-03-31T12:56:00;25.42;;;7.40;;
59474;SDS011;45288;51.136;16.928;2023-03-31T13:06:01;84.25;;;76.97;;
59474;SDS011;45288;51.136;16.928;2023-03-31T13:11:17;179.55;;;166.15;;
59474;SDS011;45288;51.136;16.928;2023-03-31T13:13:51;78.90;;;72.00;;
59474;SDS011;45288;51.136;16.928;2023-03-31T13:16:18;123.32;;;114.32;;
59474;SDS011;45288;51.136;16.928;2023-03-31T13:18:49;28.42;;;15.30;;
59474;SDS011;45288;51.136;16.928;2023-03-31T13:21:15;22.73;;;7.07;;
59474;SDS011;45288;51.136;16.928;2023-03-31T13:23:42;21.38;;;7.18;;
59474;SDS011;45288;51.136;16.928;2023-03-31T13:34:22;20.98;;;6.78;;
59474;SDS011;45288;51.136;16.928;2023-03-31T13:36:55;31.38;;;8.77;;
59474;SDS011;45288;51.136;16.928;2023-03-31T13:52:03;26.45;;;7.82;;
59474;SDS011;45288;51.136;16.928;2023-03-31T14:07:19;23.23;;;8.57;;
59474;SDS011;45288;51.136;16.928;2023-03-31T14:09:46;26.95;;;8.57;;
59474;SDS011;45288;51.136;16.928;2023-03-31T14:12:33;26.55;;;8.15;;
59474;SDS011;45288;51.136;16.928;2023-03-31T14:14:59;33.03;;;9.53;;
59474;SDS011;45288;51.136;16.928;2023-03-31T14:17:26;26.80;;;8.40;;
59474;SDS011;45288;51.136;16.928;2023-03-31T14:28:11;31.73;;;9.70;;
59474;SDS011;45288;51.136;16.928;2023-03-31T14:35:32;30.20;;;11.87;;
59474;SDS011;45288;51.136;16.928;2023-03-31T14:38:03;29.80;;;9.50;;
59474;SDS011;45288;51.136;16.928;2023-03-31T14:40:30;24.73;;;8.50;;
59474;SDS011;45288;51.136;16.928;2023-03-31T14:42:56;39.85;;;14.27;;
59474;SDS011;45288;51.136;16.928;2023-03-31T14:45:22;30.27;;;17.73;;
59474;SDS011;45288;51.136;16.928;2023-03-31T14:48:32;32.92;;;10.73;;
59474;SDS011;45288;51.136;16.928;2023-03-31T14:50:40;29.33;;;10.70;;
59474;SDS011;45288;51.136;16.928;2023-03-31T14:53:12;30.90;;;10.57;;
59474;SDS011;45288;51.136;16.928;2023-03-31T14:55:38;32.70;;;10.85;;
59474;SDS011;45288;51.136;16.928;2023-03-31T14:58:05;37.08;;;16.13;;
59474;SDS011;45288;51.136;16.928;2023-03-31T15:00:32;30.48;;;11.38;;
59474;SDS011;45288;51.136;16.928;2023-03-31T15:02:58;36.10;;;12.82;;
59474;SDS011;45288;51.136;16.928;2023-03-31T15:05:29;33.87;;;11.53;;
59474;SDS011;45288;51.136;16.928;2023-03-31T15:07:56;34.70;;;11.68;;
59474;SDS011;45288;51.136;16.928;2023-03-31T15:10:22;30.20;;;11.27;;
59474;SDS011;45288;51.136;16.928;2023-03-31T15:12:48;40.77;;;25.07;;
59474;SDS011;45288;51.136;16.928;2023-03-31T15:15:14;43.90;;;30.73;;
59474;SDS011;45288;51.136;16.928;2023-03-31T15:17:42;38.55;;;26.73;;
59474;SDS011;45288;51.136;16.928;2023-03-31T15:20:20;43.67;;;28.73;;
59474;SDS011;45288;51.136;16.928;2023-03-31T15:22:48;35.88;;;27.05;;
59474;SDS011;45288;51.136;16.928;2023-03-31T15:25:14;27.70;;;17.48;;
59474;SDS011;45288;51.136;16.928;2023-03-31T15:27:46;38.45;;;24.48;;
59474;SDS011;45288;51.136;16.928;2023-03-31T15:30:18;25.98;;;11.20;;
59474;SDS011;45288;51.136;16.928;2023-03-31T15:32:44;32.58;;;21.10;;
59474;SDS011;45288;51.136;16.928;2023-03-31T15:35:52;32.42;;;21.58;;
59474;SDS011;45288;51.136;16.928;2023-03-31T15:37:59;39.20;;;31.63;;
59474;SDS011;45288;51.136;16.928;2023-03-31T15:40:26;38.83;;;34.72;;
59474;SDS011;45288;51.136;16.928;2023-03-31T15:42:56;32.97;;;27.80;;
59474;SDS011;45288;51.136;16.928;2023-03-31T15:47:51;43.45;;;38.80;;
59474;SDS011;45288;51.136;16.928;2023-03-31T15:50:19;27.35;;;17.27;;
59474;SDS011;45288;51.136;16.928;2023-03-31T15:52:47;41.97;;;37.95;;
59474;SDS011;45288;51.136;16.928;2023-03-31T15:55:27;23.13;;;9.18;;
59474;SDS011;45288;51.136;16.928;2023-03-31T15:57:54;27.30;;;8.10;;
59474;SDS011;45288;51.136;16.928;2023-03-31T16:03:04;20.23;;;7.20;;
59474;SDS011;45288;51.136;16.928;2023-03-31T16:05:39;21.63;;;7.70;;
59474;SDS011;45288;51.136;16.928;2023-03-31T16:08:09;22.83;;;8.30;;
59474;SDS011;45288;51.136;16.928;2023-03-31T16:10:38;24.35;;;10.15;;
59474;SDS011;45288;51.136;16.928;2023-03-31T16:13:08;24.52;;;7.88;;
59474;SDS011;45288;51.136;16.928;2023-03-31T16:15:35;20.73;;;7.07;;
59474;SDS011;45288;51.136;16.928;2023-03-31T16:18:04;25.47;;;14.97;;
59474;SDS011;45288;51.136;16.928;2023-03-31T16:20:31;23.33;;;10.00;;
59474;SDS011;45288;51.136;16.928;2023-03-31T16:23:01;31.17;;;21.27;;
59474;SDS011;45288;51.136;16.928;2023-03-31T16:25:29;29.08;;;23.85;;
59474;SDS011;45288;51.136;16.928;2023-03-31T16:27:56;26.23;;;12.85;;
59474;SDS011;45288;51.136;16.928;2023-03-31T16:30:35;27.00;;;18.33;;
59474;SDS011;45288;51.136;16.928;2023-03-31T16:33:02;32.90;;;19.13;;
59474;SDS011;45288;51.136;16.928;2023-03-31T16:35:29;30.02;;;20.52;;
59474;SDS011;45288;51.136;16.928;2023-03-31T16:37:54;28.15;;;9.30;;
59474;SDS011;45288;51.136;16.928;2023-03-31T16:40:20;28.90;;;10.10;;
59474;SDS011;45288;51.136;16.928;2023-03-31T16:42:46;27.37;;;13.93;;
59474;SDS011;45288;51.136;16.928;2023-03-31T16:45:11;52.90;;;47.70;;
59474;SDS011;45288;51.136;16.928;2023-03-31T16:47:38;1044.93;;;973.03;;
59474;SDS011;45288;51.136;16.928;2023-03-31T16:50:04;89.60;;;82.50;;
59474;SDS011;45288;51.136;16.928;2023-03-31T16:52:32;93.82;;;87.13;;
59474;SDS011;45288;51.136;16.928;2023-03-31T16:54:58;21.80;;;7.25;;
59474;SDS011;45288;51.136;16.928;2023-03-31T16:57:24;20.27;;;6.57;;
59474;SDS011;45288;51.136;16.928;2023-03-31T16:59:49;25.95;;;8.93;;
59474;SDS011;45288;51.136;16.928;2023-03-31T17:02:15;16.23;;;6.27;;
59474;SDS011;45288;51.136;16.928;2023-03-31T17:04:41;20.60;;;7.35;;
59474;SDS011;45288;51.136;16.928;2023-03-31T17:07:06;21.33;;;7.03;;
59474;SDS011;45288;51.136;16.928;2023-03-31T17:09:32;18.80;;;6.60;;
59474;SDS011;45288;51.136;16.928;2023-03-31T17:11:57;26.95;;;9.25;;
59474;SDS011;45288;51.136;16.928;2023-03-31T17:14:23;33.23;;;10.80;;
59474;SDS011;45288;51.136;16.928;2023-03-31T17:16:49;26.70;;;9.30;;
59474;SDS011;45288;51.136;16.928;2023-03-31T17:19:15;26.10;;;9.17;;
59474;SDS011;45288;51.136;16.928;2023-03-31T17:21:41;28.17;;;9.75;;
59474;SDS011;45288;51.136;16.928;2023-03-31T17:24:07;22.00;;;8.15;;
59474;SDS011;45288;51.136;16.928;2023-03-31T17:26:33;22.13;;;8.60;;